createdAt,value
2016-04-29T00:00:16.955Z,1006.14
2016-04-29T00:01:16.942Z,1006.13
2016-04-29T00:02:16.930Z,1006.14
2016-04-29T00:03:16.900Z,1006.13
2016-04-29T00:04:16.888Z,1006.11
2016-04-29T00:05:16.859Z,1006.1
2016-04-29T00:06:16.846Z,1006.05
2016-04-29T00:07:16.833Z,1006.05
2016-04-29T00:08:16.804Z,1006.06
2016-04-29T00:09:16.791Z,1006.05
2016-04-29T00:10:16.763Z,1006.02
2016-04-29T00:11:16.766Z,1006.01
2016-04-29T00:12:16.738Z,1006.02
2016-04-29T00:13:16.708Z,1005.99
2016-04-29T00:14:16.710Z,1006.02
2016-04-29T00:15:16.940Z,1005.99
2016-04-29T00:16:16.748Z,1006.02
2016-04-29T00:17:16.760Z,1006
2016-04-29T00:18:16.802Z,1006.01
2016-04-29T00:19:16.805Z,1005.98
2016-04-29T00:20:16.790Z,1005.96
2016-04-29T00:21:16.791Z,1005.94
2016-04-29T00:22:16.793Z,1005.97
2016-04-29T00:23:16.778Z,1005.96
2016-04-29T00:24:16.761Z,1005.93
2016-04-29T00:25:16.753Z,1005.9
2016-04-29T00:26:16.744Z,1005.93
2016-04-29T00:27:16.721Z,1005.9
2016-04-29T00:28:16.712Z,1005.9
2016-04-29T00:29:16.688Z,1005.86
2016-04-29T00:30:16.678Z,1005.86
2016-04-29T00:31:16.666Z,1005.82
2016-04-29T00:32:16.640Z,1005.81
2016-04-29T00:33:16.628Z,1005.85
2016-04-29T00:34:16.602Z,1005.78
2016-04-29T00:35:16.589Z,1005.8
2016-04-29T00:36:16.578Z,1005.78
2016-04-29T00:37:16.549Z,1005.8
2016-04-29T00:38:16.537Z,1005.8
2016-04-29T00:39:16.509Z,1005.79
2016-04-29T00:40:16.498Z,1005.8
2016-04-29T00:41:16.469Z,1005.77
2016-04-29T00:42:16.456Z,1005.77
2016-04-29T00:43:16.443Z,1005.73
